sensor_id;sensor_type;location;lat;lon;timestamp;pressure;altitude;pressure_sealevel;temperature;humidity
61324;BME280;47203;48.428;11.974;2023-12-22T00:02:02;95259.88;;;8.89;52.87
61324;BME280;47203;48.428;11.974;2023-12-22T00:04:07;95273.88;;;8.85;53.13
61324;BME280;47203;48.428;11.974;2023-12-22T00:06:10;95285.41;;;8.84;53.30
61324;BME280;47203;48.428;11.974;2023-12-22T00:08:15;95273.16;;;8.79;53.06
61324;BME280;47203;48.428;11.974;2023-12-22T00:10:20;95291.81;;;8.78;53.29
61324;BME280;47203;48.428;11.974;2023-12-22T00:12:26;95313.09;;;8.76;53.37
61324;BME280;47203;48.428;11.974;2023-12-22T00:14:28;95323.38;;;8.72;53.05
61324;BME280;47203;48.428;11.974;2023-12-22T00:16:33;95301.09;;;8.70;53.40
61324;BME280;47203;48.428;11.974;2023-12-22T00:18:42;95295.94;;;8.65;53.26
61324;BME280;47203;48.428;11.974;2023-12-22T00:20:47;95283.88;;;8.64;53.38
61324;BME280;47203;48.428;11.974;2023-12-22T00:22:52;95274.47;;;8.63;53.27
61324;BME280;47203;48.428;11.974;2023-12-22T00:24:57;95270.28;;;8.62;53.45
61324;BME280;47203;48.428;11.974;2023-12-22T00:27:02;95272.69;;;8.58;53.35
61324;BME280;47203;48.428;11.974;2023-12-22T00:29:08;95267.03;;;8.51;53.42
61324;BME280;47203;48.428;11.974;2023-12-22T00:31:13;95258.19;;;8.47;53.45
61324;BME280;47203;48.428;11.974;2023-12-22T00:33:18;95252.72;;;8.43;53.40
61324;BME280;47203;48.428;11.974;2023-12-22T00:35:26;95243.84;;;8.39;53.64
61324;BME280;47203;48.428;11.974;2023-12-22T00:37:31;95250.94;;;8.38;53.76
61324;BME280;47203;48.428;11.974;2023-12-22T00:39:36;95255.69;;;8.36;53.43
61324;BME280;47203;48.428;11.974;2023-12-22T00:41:47;95265.41;;;8.36;53.54
61324;BME280;47203;48.428;11.974;2023-12-22T00:44:00;95267.53;;;8.34;53.48
61324;BME280;47203;48.428;11.974;2023-12-22T00:46:05;95265.97;;;8.33;53.72
61324;BME280;47203;48.428;11.974;2023-12-22T00:48:10;95277.50;;;8.32;53.54
61324;BME280;47203;48.428;11.974;2023-12-22T00:50:15;95271.97;;;8.33;53.56
61324;BME280;47203;48.428;11.974;2023-12-22T00:52:23;95264.13;;;8.33;53.71
61324;BME280;47203;48.428;11.974;2023-12-22T00:54:29;95265.97;;;8.33;53.52
61324;BME280;47203;48.428;11.974;2023-12-22T00:56:34;95256.53;;;8.32;53.74
61324;BME280;47203;48.428;11.974;2023-12-22T00:58:39;95268.88;;;8.31;53.81
61324;BME280;47203;48.428;11.974;2023-12-22T01:00:50;95259.16;;;8.32;53.77
61324;BME280;47203;48.428;11.974;2023-12-22T01:02:55;95255.78;;;8.31;53.89
61324;BME280;47203;48.428;11.974;2023-12-22T01:05:00;95248.97;;;8.30;53.79
61324;BME280;47203;48.428;11.974;2023-12-22T01:07:03;95252.16;;;8.27;53.68
61324;BME280;47203;48.428;11.974;2023-12-22T01:09:11;95259.53;;;8.25;53.76
61324;BME280;47203;48.428;11.974;2023-12-22T01:11:16;95269.50;;;8.23;53.82
61324;BME280;47203;48.428;11.974;2023-12-22T01:13:21;95267.97;;;8.22;53.80
61324;BME280;47203;48.428;11.974;2023-12-22T01:15:26;95273.22;;;8.22;53.90
61324;BME280;47203;48.428;11.974;2023-12-22T01:17:31;95282.91;;;8.21;54.12
61324;BME280;47203;48.428;11.974;2023-12-22T01:19:35;95277.94;;;8.20;53.92
61324;BME280;47203;48.428;11.974;2023-12-22T01:21:40;95273.22;;;8.22;53.80
61324;BME280;47203;48.428;11.974;2023-12-22T01:23:45;95280.00;;;8.23;53.99
61324;BME280;47203;48.428;11.974;2023-12-22T01:25:52;95275.84;;;8.22;54.06
61324;BME280;47203;48.428;11.974;2023-12-22T01:27:57;95274.28;;;8.21;54.15
61324;BME280;47203;48.428;11.974;2023-12-22T01:30:01;95275.03;;;8.21;53.91
61324;BME280;47203;48.428;11.974;2023-12-22T01:32:06;95294.66;;;8.24;53.72
61324;BME280;47203;48.428;11.974;2023-12-22T01:34:12;95297.56;;;8.23;54.12
61324;BME280;47203;48.428;11.974;2023-12-22T01:36:17;95304.09;;;8.25;53.91
61324;BME280;47203;48.428;11.974;2023-12-22T01:38:22;95285.47;;;8.27;54.16
61324;BME280;47203;48.428;11.974;2023-12-22T01:40:27;95283.63;;;8.27;54.01
61324;BME280;47203;48.428;11.974;2023-12-22T01:42:32;95283.81;;;8.31;54.00
61324;BME280;47203;48.428;11.974;2023-12-22T01:44:37;95288.81;;;8.32;54.20
61324;BME280;47203;48.428;11.974;2023-12-22T01:46:40;95294.53;;;8.34;54.21
61324;BME280;47203;48.428;11.974;2023-12-22T01:48:45;95288.50;;;8.34;54.21
61324;BME280;47203;48.428;11.974;2023-12-22T01:50:52;95286.38;;;8.36;54.00
61324;BME280;47203;48.428;11.974;2023-12-22T01:52:57;95290.56;;;8.37;54.22
61324;BME280;47203;48.428;11.974;2023-12-22T01:55:04;95294.72;;;8.38;54.16
61324;BME280;47203;48.428;11.974;2023-12-22T01:57:09;95293.47;;;8.35;54.06
61324;BME280;47203;48.428;11.974;2023-12-22T01:59:22;95292.66;;;8.35;54.16
61324;BME280;47203;48.428;11.974;2023-12-22T02:01:28;95282.19;;;8.35;54.26
61324;BME280;47203;48.428;11.974;2023-12-22T02:03:33;95291.63;;;8.36;54.47
61324;BME280;47203;48.428;11.974;2023-12-22T02:05:40;95304.91;;;8.39;54.20
61324;BME280;47203;48.428;11.974;2023-12-22T02:07:46;95303.09;;;8.40;54.52
61324;BME280;47203;48.428;11.974;2023-12-22T02:09:51;95318.03;;;8.39;54.30
61324;BME280;47203;48.428;11.974;2023-12-22T02:11:56;95316.78;;;8.37;54.54
61324;BME280;47203;48.428;11.974;2023-12-22T02:14:01;95319.13;;;8.38;54.27
61324;BME280;47203;48.428;11.974;2023-12-22T02:16:17;95307.81;;;8.38;54.53
61324;BME280;47203;48.428;11.974;2023-12-22T02:18:26;95311.03;;;8.35;54.43
61324;BME280;47203;48.428;11.974;2023-12-22T02:20:36;95297.91;;;8.35;54.36
61324;BME280;47203;48.428;11.974;2023-12-22T02:22:45;95290.06;;;8.35;54.36
61324;BME280;47203;48.428;11.974;2023-12-22T02:24:50;95284.53;;;8.36;54.25
61324;BME280;47203;48.428;11.974;2023-12-22T02:26:56;95297.91;;;8.35;54.52
61324;BME280;47203;48.428;11.974;2023-12-22T02:29:02;95300.06;;;8.33;54.49
61324;BME280;47203;48.428;11.974;2023-12-22T02:31:15;95295.09;;;8.31;54.50
61324;BME280;47203;48.428;11.974;2023-12-22T02:33:23;95309.25;;;8.30;54.48
61324;BME280;47203;48.428;11.974;2023-12-22T02:35:32;95301.69;;;8.29;54.39
61324;BME280;47203;48.428;11.974;2023-12-22T02:37:39;95303.25;;;8.30;54.55
61324;BME280;47203;48.428;11.974;2023-12-22T02:39:47;95299.34;;;8.27;54.56
61324;BME280;47203;48.428;11.974;2023-12-22T02:41:52;95307.97;;;8.28;54.71
61324;BME280;47203;48.428;11.974;2023-12-22T02:43:57;95314.03;;;8.28;54.62
61324;BME280;47203;48.428;11.974;2023-12-22T02:46:03;95310.59;;;8.28;54.38
61324;BME280;47203;48.428;11.974;2023-12-22T02:48:08;95309.06;;;8.27;54.54
61324;BME280;47203;48.428;11.974;2023-12-22T02:50:12;95305.91;;;8.25;54.46
61324;BME280;47203;48.428;11.974;2023-12-22T02:52:17;95302.53;;;8.24;54.60
61324;BME280;47203;48.428;11.974;2023-12-22T02:54:22;95317.78;;;8.22;54.51
61324;BME280;47203;48.428;11.974;2023-12-22T02:56:32;95304.66;;;8.22;54.73
61324;BME280;47203;48.428;11.974;2023-12-22T02:58:37;95310.75;;;8.17;54.49
61324;BME280;47203;48.428;11.974;2023-12-22T03:00:43;95310.25;;;8.15;54.72
61324;BME280;47203;48.428;11.974;2023-12-22T03:02:48;95286.94;;;8.14;54.73
61324;BME280;47203;48.428;11.974;2023-12-22T03:04:50;95280.13;;;8.13;54.75
61324;BME280;47203;48.428;11.974;2023-12-22T03:06:55;95284.31;;;8.14;54.67
61324;BME280;47203;48.428;11.974;2023-12-22T03:08:57;95293.25;;;8.13;54.69
61324;BME280;47203;48.428;11.974;2023-12-22T03:11:03;95296.91;;;8.12;54.69
61324;BME280;47203;48.428;11.974;2023-12-22T03:13:10;95282.28;;;8.11;54.91
61324;BME280;47203;48.428;11.974;2023-12-22T03:15:16;95280.44;;;8.11;54.68
61324;BME280;47203;48.428;11.974;2023-12-22T03:17:20;95279.38;;;8.12;54.58
61324;BME280;47203;48.428;11.974;2023-12-22T03:19:25;95263.66;;;8.12;54.92
61324;BME280;47203;48.428;11.974;2023-12-22T03:21:28;95254.72;;;8.13;54.62
61324;BME280;47203;48.428;11.974;2023-12-22T03:23:33;95259.97;;;8.13;54.74
61324;BME280;47203;48.428;11.974;2023-12-22T03:25:39;95266.75;;;8.14;54.77
61324;BME280;47203;48.428;11.974;2023-12-22T03:27:41;95267.25;;;8.16;54.84
61324;BME280;47203;48.428;11.974;2023-12-22T03:29:49;95260.94;;;8.17;54.87
61324;BME280;47203;48.428;11.974;2023-12-22T03:31:54;95278.22;;;8.18;55.00
61324;BME280;47203;48.428;11.974;2023-12-22T03:33:56;95278.22;;;8.18;54.92
61324;BME280;47203;48.428;11.974;2023-12-22T03:36:01;95278.22;;;8.18;54.84
61324;BME280;47203;48.428;11.974;2023-12-22T03:38:06;95274.56;;;8.19;54.85
61324;BME280;47203;48.428;11.974;2023-12-22T03:40:12;95285.81;;;8.20;54.99
61324;BME280;47203;48.428;11.974;2023-12-22T03:42:17;95293.69;;;8.20;54.92
61324;BME280;47203;48.428;11.974;2023-12-22T03:44:22;95288.44;;;8.20;55.17
61324;BME280;47203;48.428;11.974;2023-12-22T03:46:30;95264.84;;;8.20;54.85
61324;BME280;47203;48.428;11.974;2023-12-22T03:48:35;95266.69;;;8.19;55.04
61324;BME280;47203;48.428;11.974;2023-12-22T03:50:41;95264.66;;;8.16;54.91
61324;BME280;47203;48.428;11.974;2023-12-22T03:52:43;95273.06;;;8.13;54.82
61324;BME280;47203;48.428;11.974;2023-12-22T03:54:48;95287.53;;;8.11;55.04
61324;BME280;47203;48.428;11.974;2023-12-22T03:56:53;95280.72;;;8.10;55.01
61324;BME280;47203;48.428;11.974;2023-12-22T03:58:58;95277.81;;;8.11;55.35
61324;BME280;47203;48.428;11.974;2023-12-22T04:01:01;95269.16;;;8.11;55.05
61324;BME280;47203;48.428;11.974;2023-12-22T04:03:08;95261.31;;;8.11;55.20
61324;BME280;47203;48.428;11.974;2023-12-22T04:05:13;95267.88;;;8.08;55.06
61324;BME280;47203;48.428;11.974;2023-12-22T04:07:19;95279.72;;;8.06;55.25
61324;BME280;47203;48.428;11.974;2023-12-22T04:09:24;95265.06;;;8.04;55.32
61324;BME280;47203;48.428;11.974;2023-12-22T04:11:28;95266.91;;;8.04;55.09
61324;BME280;47203;48.428;11.974;2023-12-22T04:13:31;95250.88;;;8.06;55.12
61324;BME280;47203;48.428;11.974;2023-12-22T04:15:36;95260.59;;;8.05;55.17
61324;BME280;47203;48.428;11.974;2023-12-22T04:17:41;95249.06;;;8.06;55.21
61324;BME280;47203;48.428;11.974;2023-12-22T04:19:49;95245.38;;;8.07;55.27
61324;BME280;47203;48.428;11.974;2023-12-22T04:21:55;95246.63;;;8.10;55.33
61324;BME280;47203;48.428;11.974;2023-12-22T04:23:59;95253.72;;;8.09;55.32
61324;BME280;47203;48.428;11.974;2023-12-22T04:26:04;95255.56;;;8.09;55.48
61324;BME280;47203;48.428;11.974;2023-12-22T04:28:09;95256.13;;;8.06;55.29
61324;BME280;47203;48.428;11.974;2023-12-22T04:30:13;95252.75;;;8.05;55.23
61324;BME280;47203;48.428;11.974;2023-12-22T04:32:18;95243.03;;;8.06;55.46
61324;BME280;47203;48.428;11.974;2023-12-22T04:34:22;95251.69;;;8.06;55.13
61324;BME280;47203;48.428;11.974;2023-12-22T04:36:30;95244.31;;;8.08;55.44
61324;BME280;47203;48.428;11.974;2023-12-22T04:38:35;95242.16;;;8.10;55.19
61324;BME280;47203;48.428;11.974;2023-12-22T04:40:37;95245.59;;;8.11;55.16
61324;BME280;47203;48.428;11.974;2023-12-22T04:42:42;95245.31;;;8.12;55.44
61324;BME280;47203;48.428;11.974;2023-12-22T04:44:47;95252.88;;;8.14;55.53
61324;BME280;47203;48.428;11.974;2023-12-22T04:46:53;95268.31;;;8.15;55.22
61324;BME280;47203;48.428;11.974;2023-12-22T04:48:58;95282.69;;;8.18;55.53
61324;BME280;47203;48.428;11.974;2023-12-22T04:51:04;95286.88;;;8.19;55.48
61324;BME280;47203;48.428;11.974;2023-12-22T04:53:11;95303.09;;;8.21;55.49
61324;BME280;47203;48.428;11.974;2023-12-22T04:55:17;95321.94;;;8.23;55.62
61324;BME280;47203;48.428;11.974;2023-12-22T04:57:24;95325.34;;;8.24;55.47
61324;BME280;47203;48.428;11.974;2023-12-22T04:59:29;95330.31;;;8.25;55.51
61324;BME280;47203;48.428;11.974;2023-12-22T05:01:34;95327.69;;;8.25;55.52
61324;BME280;47203;48.428;11.974;2023-12-22T05:03:39;95332.41;;;8.23;55.48
61324;BME280;47203;48.428;11.974;2023-12-22T05:05:44;95347.16;;;8.19;55.48
61324;BME280;47203;48.428;11.974;2023-12-22T05:07:49;95339.38;;;8.14;55.31
61324;BME280;47203;48.428;11.974;2023-12-22T05:09:56;95333.59;;;8.12;55.30
61324;BME280;47203;48.428;11.974;2023-12-22T05:12:02;95345.47;;;8.09;55.41
61324;BME280;47203;48.428;11.974;2023-12-22T05:14:07;95332.63;;;8.08;55.41
61324;BME280;47203;48.428;11.974;2023-12-22T05:16:09;95337.38;;;8.06;55.47
61324;BME280;47203;48.428;11.974;2023-12-22T05:18:14;95336.88;;;8.03;55.55
61324;BME280;47203;48.428;11.974;2023-12-22T05:20:21;95341.59;;;8.01;55.12
61324;BME280;47203;48.428;11.974;2023-12-22T05:22:26;95347.13;;;8.00;55.29
61324;BME280;47203;48.428;11.974;2023-12-22T05:24:37;95340.34;;;7.99;55.10
61324;BME280;47203;48.428;11.974;2023-12-22T05:26:44;95342.44;;;7.97;55.36
61324;BME280;47203;48.428;11.974;2023-12-22T05:28:49;95346.41;;;7.94;55.16
61324;BME280;47203;48.428;11.974;2023-12-22T05:30:54;95341.16;;;7.94;55.21
61324;BME280;47203;48.428;11.974;2023-12-22T05:32:59;95356.88;;;7.94;55.31
61324;BME280;47203;48.428;11.974;2023-12-22T05:35:05;95349.31;;;7.93;55.29
61324;BME280;47203;48.428;11.974;2023-12-22T05:37:12;95356.38;;;7.92;55.39
61324;BME280;47203;48.428;11.974;2023-12-22T05:39:17;95357.97;;;7.93;55.18
61324;BME280;47203;48.428;11.974;2023-12-22T05:41:22;95358.25;;;7.92;55.20
61324;BME280;47203;48.428;11.974;2023-12-22T05:43:27;95362.69;;;7.91;55.35
61324;BME280;47203;48.428;11.974;2023-12-22T05:45:33;95370.25;;;7.93;55.36
61324;BME280;47203;48.428;11.974;2023-12-22T05:47:38;95369.22;;;7.94;55.61
61324;BME280;47203;48.428;11.974;2023-12-22T05:49:44;95371.06;;;7.93;55.18
61324;BME280;47203;48.428;11.974;2023-12-22T05:51:46;95364.75;;;7.94;55.27
61324;BME280;47203;48.428;11.974;2023-12-22T05:53:51;95366.31;;;7.95;55.45
61324;BME280;47203;48.428;11.974;2023-12-22T05:55:55;95366.31;;;7.95;55.44
61324;BME280;47203;48.428;11.974;2023-12-22T05:58:00;95361.06;;;7.95;55.20
61324;BME280;47203;48.428;11.974;2023-12-22T06:00:10;95362.91;;;7.95;55.30
61324;BME280;47203;48.428;11.974;2023-12-22T06:02:17;95363.19;;;7.93;55.49
61324;BME280;47203;48.428;11.974;2023-12-22T06:04:22;95366.88;;;7.92;55.43
61324;BME280;47203;48.428;11.974;2023-12-22T06:06:27;95362.69;;;7.91;55.36
61324;BME280;47203;48.428;11.974;2023-12-22T06:08:32;95354.34;;;7.89;55.06
61324;BME280;47203;48.428;11.974;2023-12-22T06:10:38;95363.25;;;7.88;55.41
61324;BME280;47203;48.428;11.974;2023-12-22T06:12:43;95373.72;;;7.88;55.26
61324;BME280;47203;48.428;11.974;2023-12-22T06:14:45;95372.44;;;7.85;55.40
61324;BME280;47203;48.428;11.974;2023-12-22T06:16:52;95378.47;;;7.86;55.13
61324;BME280;47203;48.428;11.974;2023-12-22T06:18:59;95375.84;;;7.86;55.41
61324;BME280;47203;48.428;11.974;2023-12-22T06:21:06;95385.03;;;7.83;55.48
61324;BME280;47203;48.428;11.974;2023-12-22T06:23:11;95386.63;;;7.84;55.24
61324;BME280;47203;48.428;11.974;2023-12-22T06:25:13;95394.22;;;7.81;55.40
61324;BME280;47203;48.428;11.974;2023-12-22T06:27:18;95403.44;;;7.78;55.60
61324;BME280;47203;48.428;11.974;2023-12-22T06:29:23;95395.06;;;7.76;55.24
61324;BME280;47203;48.428;11.974;2023-12-22T06:31:32;95383.81;;;7.76;55.39
61324;BME280;47203;48.428;11.974;2023-12-22T06:33:37;95389.06;;;7.76;55.61
61324;BME280;47203;48.428;11.974;2023-12-22T06:35:42;95405.28;;;7.78;55.55
61324;BME280;47203;48.428;11.974;2023-12-22T06:37:47;95395.06;;;7.76;55.56
61324;BME280;47203;48.428;11.974;2023-12-22T06:39:50;95398.75;;;7.75;55.51
61324;BME280;47203;48.428;11.974;2023-12-22T06:41:55;95405.34;;;7.73;55.65
61324;BME280;47203;48.428;11.974;2023-12-22T06:43:59;95416.88;;;7.72;55.51
61324;BME280;47203;48.428;11.974;2023-12-22T06:46:14;95417.13;;;7.70;55.71
61324;BME280;47203;48.428;11.974;2023-12-22T06:48:17;95419.00;;;7.69;55.62
61324;BME280;47203;48.428;11.974;2023-12-22T06:50:24;95407.50;;;7.65;55.31
61324;BME280;47203;48.428;11.974;2023-12-22T06:52:29;95406.97;;;7.63;55.34
61324;BME280;47203;48.428;11.974;2023-12-22T06:54:34;95410.44;;;7.59;55.36
61324;BME280;47203;48.428;11.974;2023-12-22T06:56:40;95411.00;;;7.56;55.31
61324;BME280;47203;48.428;11.974;2023-12-22T06:58:45;95409.69;;;7.53;55.62
61324;BME280;47203;48.428;11.974;2023-12-22T07:00:51;95400.56;;;7.50;55.46
61324;BME280;47203;48.428;11.974;2023-12-22T07:02:58;95409.75;;;7.48;55.50
61324;BME280;47203;48.428;11.974;2023-12-22T07:05:35;95402.19;;;7.46;55.65
61324;BME280;47203;48.428;11.974;2023-12-22T07:07:40;95409.22;;;7.46;55.36
61324;BME280;47203;48.428;11.974;2023-12-22T07:09:43;95401.94;;;7.43;55.72
61324;BME280;47203;48.428;11.974;2023-12-22T07:11:49;95423.97;;;7.42;55.63
61324;BME280;47203;48.428;11.974;2023-12-22T07:13:55;95435.47;;;7.41;55.41
61324;BME280;47203;48.428;11.974;2023-12-22T07:15:59;95441.75;;;7.40;55.37
61324;BME280;47203;48.428;11.974;2023-12-22T07:18:04;95440.19;;;7.39;55.49
61324;BME280;47203;48.428;11.974;2023-12-22T07:20:10;95441.53;;;7.36;55.64
61324;BME280;47203;48.428;11.974;2023-12-22T07:22:18;95442.09;;;7.33;55.41
61324;BME280;47203;48.428;11.974;2023-12-22T07:24:23;95418.00;;;7.31;55.51
61324;BME280;47203;48.428;11.974;2023-12-22T07:26:29;95436.59;;;7.29;55.46
61324;BME280;47203;48.428;11.974;2023-12-22T07:28:34;95441.56;;;7.31;55.67
61324;BME280;47203;48.428;11.974;2023-12-22T07:30:39;95451.75;;;7.32;55.75
61324;BME280;47203;48.428;11.974;2023-12-22T07:32:44;95442.88;;;7.33;55.71
61324;BME280;47203;48.428;11.974;2023-12-22T07:34:50;95447.81;;;7.35;55.69
61324;BME280;47203;48.428;11.974;2023-12-22T07:36:55;95458.28;;;7.35;55.70
61324;BME280;47203;48.428;11.974;2023-12-22T07:39:10;95470.34;;;7.36;55.85
61324;BME280;47203;48.428;11.974;2023-12-22T07:41:18;95477.38;;;7.36;55.66
61324;BME280;47203;48.428;11.974;2023-12-22T07:43:23;95478.69;;;7.38;55.59
61324;BME280;47203;48.428;11.974;2023-12-22T07:45:33;95494.13;;;7.40;55.56
61324;BME280;47203;48.428;11.974;2023-12-22T07:47:38;95490.19;;;7.42;55.84
61324;BME280;47203;48.428;11.974;2023-12-22T07:49:41;95487.00;;;7.45;55.59
61324;BME280;47203;48.428;11.974;2023-12-22T07:51:48;95500.59;;;7.47;55.79
61324;BME280;47203;48.428;11.974;2023-12-22T07:53:53;95504.78;;;7.48;55.69
61324;BME280;47203;48.428;11.974;2023-12-22T07:56:02;95516.81;;;7.49;56.00
61324;BME280;47203;48.428;11.974;2023-12-22T07:58:10;95514.22;;;7.49;55.85
61324;BME280;47203;48.428;11.974;2023-12-22T08:00:16;95516.81;;;7.49;55.93
61324;BME280;47203;48.428;11.974;2023-12-22T08:02:21;95501.13;;;7.49;55.83
61324;BME280;47203;48.428;11.974;2023-12-22T08:04:26;95503.75;;;7.49;56.01
61324;BME280;47203;48.428;11.974;2023-12-22T08:06:31;95515.25;;;7.48;56.16
61324;BME280;47203;48.428;11.974;2023-12-22T08:08:37;95527.56;;;7.48;55.68
61324;BME280;47203;48.428;11.974;2023-12-22T08:10:43;95520.78;;;7.47;55.83
61324;BME280;47203;48.428;11.974;2023-12-22T08:12:50;95520.00;;;7.46;55.82
61324;BME280;47203;48.428;11.974;2023-12-22T08:14:55;95520.78;;;7.47;56.00
61324;BME280;47203;48.428;11.974;2023-12-22T08:17:00;95515.53;;;7.47;56.17
61324;BME280;47203;48.428;11.974;2023-12-22T08:19:05;95510.28;;;7.47;55.98
61324;BME280;47203;48.428;11.974;2023-12-22T08:21:11;95514.50;;;7.43;55.90
61324;BME280;47203;48.428;11.974;2023-12-22T08:23:34;95514.28;;;7.39;56.30
61324;BME280;47203;48.428;11.974;2023-12-22T08:25:47;95523.69;;;7.40;56.29
61324;BME280;47203;48.428;11.974;2023-12-22T08:27:55;95524.16;;;7.47;56.31
61324;BME280;47203;48.428;11.974;2023-12-22T08:30:00;95520.69;;;7.57;56.30
61324;BME280;47203;48.428;11.974;2023-12-22T08:32:06;95525.91;;;7.62;56.25
61324;BME280;47203;48.428;11.974;2023-12-22T08:34:11;95533.22;;;7.65;56.33
61324;BME280;47203;48.428;11.974;2023-12-22T08:36:15;95530.03;;;7.68;56.32
61324;BME280;47203;48.428;11.974;2023-12-22T08:38:20;95538.91;;;7.73;56.08
61324;BME280;47203;48.428;11.974;2023-12-22T08:40:25;95534.13;;;7.80;56.22
61324;BME280;47203;48.428;11.974;2023-12-22T08:42:31;95550.31;;;7.87;56.43
61324;BME280;47203;48.428;11.974;2023-12-22T08:44:39;95559.44;;;7.90;56.27
61324;BME280;47203;48.428;11.974;2023-12-22T08:46:44;95556.00;;;7.94;56.27
61324;BME280;47203;48.428;11.974;2023-12-22T08:48:49;95569.91;;;7.95;56.39
61324;BME280;47203;48.428;11.974;2023-12-22T08:50:52;95566.72;;;7.98;56.38
61324;BME280;47203;48.428;11.974;2023-12-22T08:52:57;95570.41;;;7.97;56.49
61324;BME280;47203;48.428;11.974;2023-12-22T08:55:02;95574.59;;;7.98;56.48
61324;BME280;47203;48.428;11.974;2023-12-22T08:57:07;95568.56;;;7.97;56.49
61324;BME280;47203;48.428;11.974;2023-12-22T08:59:12;95576.94;;;7.99;56.45
61324;BME280;47203;48.428;11.974;2023-12-22T09:01:22;95567.75;;;8.02;56.45
61324;BME280;47203;48.428;11.974;2023-12-22T09:03:27;95552.81;;;8.02;56.42
61324;BME280;47203;48.428;11.974;2023-12-22T09:05:32;95559.34;;;8.05;56.78
61324;BME280;47203;48.428;11.974;2023-12-22T09:07:37;95566.91;;;8.07;56.48
61324;BME280;47203;48.428;11.974;2023-12-22T09:09:43;95568.50;;;8.08;56.42
61324;BME280;47203;48.428;11.974;2023-12-22T09:11:57;95580.25;;;8.10;56.52
61324;BME280;47203;48.428;11.974;2023-12-22T09:14:03;95564.25;;;8.12;56.72
61324;BME280;47203;48.428;11.974;2023-12-22T09:16:12;95555.56;;;8.16;56.62
61324;BME280;47203;48.428;11.974;2023-12-22T09:18:20;95564.94;;;8.23;56.95
61324;BME280;47203;48.428;11.974;2023-12-22T09:20:25;95552.56;;;8.28;56.71
61324;BME280;47203;48.428;11.974;2023-12-22T09:22:32;95547.03;;;8.30;56.70
61324;BME280;47203;48.428;11.974;2023-12-22T09:24:37;95532.59;;;8.32;56.68
61324;BME280;47203;48.428;11.974;2023-12-22T09:26:42;95540.97;;;8.34;56.70
61324;BME280;47203;48.428;11.974;2023-12-22T09:28:47;95541.75;;;8.35;56.92
61324;BME280;47203;48.428;11.974;2023-12-22T09:30:52;95526.53;;;8.37;57.15
61324;BME280;47203;48.428;11.974;2023-12-22T09:32:55;95531.22;;;8.40;57.05
61324;BME280;47203;48.428;11.974;2023-12-22T09:35:03;95544.03;;;8.42;57.11
61324;BME280;47203;48.428;11.974;2023-12-22T09:37:10;95560.00;;;8.45;57.21
61324;BME280;47203;48.428;11.974;2023-12-22T09:39:15;95576.28;;;8.47;57.30
61324;BME280;47203;48.428;11.974;2023-12-22T09:41:20;95615.31;;;8.49;57.11
61324;BME280;47203;48.428;11.974;2023-12-22T09:43:25;95602.97;;;8.49;57.17
61324;BME280;47203;48.428;11.974;2023-12-22T09:45:31;95570.94;;;8.52;57.09
61324;BME280;47203;48.428;11.974;2023-12-22T09:47:35;95575.34;;;8.57;57.16
61324;BME280;47203;48.428;11.974;2023-12-22T09:49:40;95587.38;;;8.63;56.98
61324;BME280;47203;48.428;11.974;2023-12-22T09:51:50;95585.75;;;8.67;57.09
61324;BME280;47203;48.428;11.974;2023-12-22T09:53:56;95570.25;;;8.71;56.92
61324;BME280;47203;48.428;11.974;2023-12-22T09:56:06;95560.22;;;8.73;57.14
61324;BME280;47203;48.428;11.974;2023-12-22T09:58:13;95552.38;;;8.73;56.95
61324;BME280;47203;48.428;11.974;2023-12-22T10:00:19;95556.56;;;8.74;57.04
61324;BME280;47203;48.428;11.974;2023-12-22T10:02:29;95556.56;;;8.74;57.16
61324;BME280;47203;48.428;11.974;2023-12-22T10:04:35;95545.78;;;8.76;57.35
61324;BME280;47203;48.428;11.974;2023-12-22T10:06:41;95532.09;;;8.79;57.18
61324;BME280;47203;48.428;11.974;2023-12-22T10:08:50;95523.19;;;8.80;57.28
61324;BME280;47203;48.428;11.974;2023-12-22T10:10:56;95520.28;;;8.81;57.02
61324;BME280;47203;48.428;11.974;2023-12-22T10:13:03;95516.31;;;8.84;57.09
61324;BME280;47203;48.428;11.974;2023-12-22T10:15:12;95514.41;;;8.89;57.40
61324;BME280;47203;48.428;11.974;2023-12-22T10:17:18;95515.59;;;8.97;57.17
61324;BME280;47203;48.428;11.974;2023-12-22T10:19:23;95523.69;;;9.01;57.42
61324;BME280;47203;48.428;11.974;2023-12-22T10:21:28;95518.94;;;9.03;57.23
61324;BME280;47203;48.428;11.974;2023-12-22T10:23:36;95512.66;;;9.04;57.28
61324;BME280;47203;48.428;11.974;2023-12-22T10:25:44;95522.34;;;9.03;57.25
61324;BME280;47203;48.428;11.974;2023-12-22T10:27:52;95514.47;;;9.03;57.31
61324;BME280;47203;48.428;11.974;2023-12-22T10:29:57;95513.41;;;9.04;57.36
61324;BME280;47203;48.428;11.974;2023-12-22T10:32:04;95509.22;;;9.03;57.24
61324;BME280;47203;48.428;11.974;2023-12-22T10:34:09;95503.19;;;9.03;57.30
61324;BME280;47203;48.428;11.974;2023-12-22T10:36:14;95499.00;;;9.02;57.51
61324;BME280;47203;48.428;11.974;2023-12-22T10:38:19;95498.22;;;9.01;57.34
61324;BME280;47203;48.428;11.974;2023-12-22T10:40:21;95491.41;;;9.00;57.29
61324;BME280;47203;48.428;11.974;2023-12-22T10:42:31;95472.84;;;8.97;57.62
61324;BME280;47203;48.428;11.974;2023-12-22T10:44:34;95481.78;;;8.96;57.39
61324;BME280;47203;48.428;11.974;2023-12-22T10:46:39;95495.94;;;8.95;57.52
61324;BME280;47203;48.428;11.974;2023-12-22T10:48:45;95489.16;;;8.94;57.53
61324;BME280;47203;48.428;11.974;2023-12-22T10:50:50;95489.69;;;8.90;57.65
61324;BME280;47203;48.428;11.974;2023-12-22T10:52:55;95507.31;;;8.90;57.50
61324;BME280;47203;48.428;11.974;2023-12-22T10:55:01;95505.53;;;8.85;57.35
61324;BME280;47203;48.428;11.974;2023-12-22T10:57:04;95490.63;;;8.81;57.40
61324;BME280;47203;48.428;11.974;2023-12-22T10:59:12;95505.09;;;8.78;57.53
61324;BME280;47203;48.428;11.974;2023-12-22T11:01:17;95494.88;;;8.77;57.53
61324;BME280;47203;48.428;11.974;2023-12-22T11:03:23;95510.91;;;8.75;57.41
61324;BME280;47203;48.428;11.974;2023-12-22T11:05:32;95514.31;;;8.76;57.54
61324;BME280;47203;48.428;11.974;2023-12-22T11:07:36;95494.88;;;8.77;57.54